sensor_id;sensor_type;location;lat;lon;timestamp;noise_LAeq;noise_LA_min;noise_LA_max;noise_LA01;noise_LA95
61321;Laerm;17737;52.586;13.284;2023-12-07T00:02:04;67.91;59.62;78.92;;
61321;Laerm;17737;52.586;13.284;2023-12-07T00:04:33;78.68;63.28;87.00;;
61321;Laerm;17737;52.586;13.284;2023-12-07T00:07:02;69.50;60.59;81.54;;
61321;Laerm;17737;52.586;13.284;2023-12-07T00:09:30;73.42;60.49;83.32;;
61321;Laerm;17737;52.586;13.284;2023-12-07T00:11:59;69.42;58.54;82.37;;
61321;Laerm;17737;52.586;13.284;2023-12-07T00:14:27;64.34;59.08;72.44;;
61321;Laerm;17737;52.586;13.284;2023-12-07T00:16:55;70.79;60.22;80.71;;
61321;Laerm;17737;52.586;13.284;2023-12-07T00:19:24;65.49;59.77;75.03;;
61321;Laerm;17737;52.586;13.284;2023-12-07T00:21:52;66.86;58.32;77.87;;
61321;Laerm;17737;52.586;13.284;2023-12-07T00:24:20;64.08;57.91;74.90;;
61321;Laerm;17737;52.586;13.284;2023-12-07T00:26:48;68.97;61.31;79.08;;
61321;Laerm;17737;52.586;13.284;2023-12-07T00:29:18;63.64;57.06;75.70;;
61321;Laerm;17737;52.586;13.284;2023-12-07T00:31:47;63.99;57.85;76.31;;
61321;Laerm;17737;52.586;13.284;2023-12-07T00:34:15;63.88;57.76;73.28;;
61321;Laerm;17737;52.586;13.284;2023-12-07T00:36:44;67.05;60.11;79.18;;
61321;Laerm;17737;52.586;13.284;2023-12-07T00:39:12;75.48;64.60;83.86;;
61321;Laerm;17737;52.586;13.284;2023-12-07T00:41:40;73.43;62.63;82.95;;
61321;Laerm;17737;52.586;13.284;2023-12-07T00:44:08;85.83;61.39;101.79;;
61321;Laerm;17737;52.586;13.284;2023-12-07T00:46:40;80.84;63.69;91.43;;
61321;Laerm;17737;52.586;13.284;2023-12-07T00:49:08;76.75;62.70;86.53;;
61321;Laerm;17737;52.586;13.284;2023-12-07T00:51:36;74.55;61.95;83.43;;
61321;Laerm;17737;52.586;13.284;2023-12-07T00:54:04;64.79;59.68;73.67;;
61321;Laerm;17737;52.586;13.284;2023-12-07T00:56:33;65.67;60.32;77.24;;
61321;Laerm;17737;52.586;13.284;2023-12-07T00:59:02;67.19;61.08;76.77;;
61321;Laerm;17737;52.586;13.284;2023-12-07T01:01:30;67.18;60.94;76.69;;
61321;Laerm;17737;52.586;13.284;2023-12-07T01:04:00;62.81;57.87;74.06;;
61321;Laerm;17737;52.586;13.284;2023-12-07T01:06:28;64.84;58.21;74.37;;
61321;Laerm;17737;52.586;13.284;2023-12-07T01:08:57;64.55;58.42;74.15;;
61321;Laerm;17737;52.586;13.284;2023-12-07T01:11:25;63.80;58.13;74.17;;
61321;Laerm;17737;52.586;13.284;2023-12-07T01:13:53;68.63;60.70;78.85;;
61321;Laerm;17737;52.586;13.284;2023-12-07T01:16:21;73.20;60.60;83.46;;
61321;Laerm;17737;52.586;13.284;2023-12-07T01:18:51;74.55;65.30;81.51;;
61321;Laerm;17737;52.586;13.284;2023-12-07T01:21:21;76.03;65.14;83.02;;
61321;Laerm;17737;52.586;13.284;2023-12-07T01:23:50;73.22;63.58;81.62;;
61321;Laerm;17737;52.586;13.284;2023-12-07T01:26:32;81.06;65.45;96.01;;
61321;Laerm;17737;52.586;13.284;2023-12-07T01:29:00;82.44;61.10;102.11;;
61321;Laerm;17737;52.586;13.284;2023-12-07T01:31:29;63.80;56.50;75.78;;
61321;Laerm;17737;52.586;13.284;2023-12-07T01:33:59;63.19;57.14;73.70;;
61321;Laerm;17737;52.586;13.284;2023-12-07T01:36:29;64.30;58.26;73.99;;
61321;Laerm;17737;52.586;13.284;2023-12-07T01:38:57;64.24;59.15;73.23;;
61321;Laerm;17737;52.586;13.284;2023-12-07T01:41:27;66.57;58.88;76.41;;
61321;Laerm;17737;52.586;13.284;2023-12-07T01:43:55;72.83;60.92;80.34;;
61321;Laerm;17737;52.586;13.284;2023-12-07T01:46:23;74.96;66.14;81.45;;
61321;Laerm;17737;52.586;13.284;2023-12-07T01:48:52;70.08;60.52;78.84;;
61321;Laerm;17737;52.586;13.284;2023-12-07T01:51:20;73.36;60.32;81.81;;
61321;Laerm;17737;52.586;13.284;2023-12-07T01:53:51;65.21;60.54;77.12;;
61321;Laerm;17737;52.586;13.284;2023-12-07T01:56:19;73.19;62.49;80.75;;
61321;Laerm;17737;52.586;13.284;2023-12-07T01:58:49;72.31;61.29;81.17;;
61321;Laerm;17737;52.586;13.284;2023-12-07T02:01:18;73.40;63.24;81.39;;
61321;Laerm;17737;52.586;13.284;2023-12-07T02:03:46;73.27;60.82;81.22;;
61321;Laerm;17737;52.586;13.284;2023-12-07T02:06:15;78.58;69.01;84.28;;
61321;Laerm;17737;52.586;13.284;2023-12-07T02:08:44;75.85;65.94;81.30;;
61321;Laerm;17737;52.586;13.284;2023-12-07T02:11:13;74.96;65.42;81.76;;
61321;Laerm;17737;52.586;13.284;2023-12-07T02:13:42;78.12;68.00;84.83;;
61321;Laerm;17737;52.586;13.284;2023-12-07T02:16:18;73.23;62.96;81.90;;
61321;Laerm;17737;52.586;13.284;2023-12-07T02:18:54;73.19;65.24;80.15;;
61321;Laerm;17737;52.586;13.284;2023-12-07T02:21:31;77.01;67.23;83.32;;
61321;Laerm;17737;52.586;13.284;2023-12-07T02:24:02;73.25;63.70;80.97;;
61321;Laerm;17737;52.586;13.284;2023-12-07T02:26:34;72.97;63.52;81.45;;
61321;Laerm;17737;52.586;13.284;2023-12-07T02:29:04;76.12;66.85;82.56;;
61321;Laerm;17737;52.586;13.284;2023-12-07T02:31:32;75.08;66.07;81.75;;
61321;Laerm;17737;52.586;13.284;2023-12-07T02:34:01;70.95;62.35;79.28;;
61321;Laerm;17737;52.586;13.284;2023-12-07T02:36:32;73.31;64.20;80.86;;
61321;Laerm;17737;52.586;13.284;2023-12-07T02:39:04;73.28;63.83;80.67;;
61321;Laerm;17737;52.586;13.284;2023-12-07T02:41:36;69.79;59.53;79.19;;
61321;Laerm;17737;52.586;13.284;2023-12-07T02:44:05;65.41;57.91;75.52;;
61321;Laerm;17737;52.586;13.284;2023-12-07T02:46:34;63.46;58.52;72.35;;
61321;Laerm;17737;52.586;13.284;2023-12-07T02:49:02;63.89;58.23;72.68;;
61321;Laerm;17737;52.586;13.284;2023-12-07T02:51:31;61.66;57.63;75.60;;
61321;Laerm;17737;52.586;13.284;2023-12-07T02:53:59;62.09;57.66;74.06;;
61321;Laerm;17737;52.586;13.284;2023-12-07T02:56:27;61.16;57.42;72.06;;
61321;Laerm;17737;52.586;13.284;2023-12-07T02:58:57;61.72;58.20;72.08;;
61321;Laerm;17737;52.586;13.284;2023-12-07T03:01:25;67.42;59.34;77.30;;
61321;Laerm;17737;52.586;13.284;2023-12-07T03:03:53;64.90;59.15;75.60;;
61321;Laerm;17737;52.586;13.284;2023-12-07T03:06:22;71.21;61.19;81.22;;
61321;Laerm;17737;52.586;13.284;2023-12-07T03:08:50;73.34;61.61;81.44;;
61321;Laerm;17737;52.586;13.284;2023-12-07T03:11:18;72.03;61.87;81.28;;
61321;Laerm;17737;52.586;13.284;2023-12-07T03:13:46;67.06;60.76;75.82;;
61321;Laerm;17737;52.586;13.284;2023-12-07T03:16:16;72.20;63.13;80.31;;
61321;Laerm;17737;52.586;13.284;2023-12-07T03:18:44;74.99;66.01;81.65;;
61321;Laerm;17737;52.586;13.284;2023-12-07T03:21:13;74.22;61.19;82.84;;
61321;Laerm;17737;52.586;13.284;2023-12-07T03:23:41;74.73;65.25;83.27;;
61321;Laerm;17737;52.586;13.284;2023-12-07T03:26:09;72.14;61.91;79.98;;
61321;Laerm;17737;52.586;13.284;2023-12-07T03:28:37;75.01;63.11;82.65;;
61321;Laerm;17737;52.586;13.284;2023-12-07T03:31:05;82.77;63.60;106.00;;
61321;Laerm;17737;52.586;13.284;2023-12-07T03:33:35;76.19;64.04;83.48;;
61321;Laerm;17737;52.586;13.284;2023-12-07T03:36:06;69.03;60.92;79.52;;
61321;Laerm;17737;52.586;13.284;2023-12-07T03:38:34;72.61;61.46;83.53;;
61321;Laerm;17737;52.586;13.284;2023-12-07T03:41:02;76.91;66.46;83.59;;
61321;Laerm;17737;52.586;13.284;2023-12-07T03:43:30;75.95;67.10;82.89;;
61321;Laerm;17737;52.586;13.284;2023-12-07T03:45:59;76.91;66.72;83.31;;
61321;Laerm;17737;52.586;13.284;2023-12-07T03:48:27;73.47;61.06;82.28;;
61321;Laerm;17737;52.586;13.284;2023-12-07T03:50:56;63.60;58.74;72.03;;
61321;Laerm;17737;52.586;13.284;2023-12-07T03:53:24;67.33;58.59;77.55;;
61321;Laerm;17737;52.586;13.284;2023-12-07T03:55:53;67.50;60.94;75.78;;
61321;Laerm;17737;52.586;13.284;2023-12-07T03:58:21;64.69;59.65;74.62;;
61321;Laerm;17737;52.586;13.284;2023-12-07T04:00:49;69.47;59.92;84.46;;
61321;Laerm;17737;52.586;13.284;2023-12-07T04:03:18;79.95;63.42;89.59;;
61321;Laerm;17737;52.586;13.284;2023-12-07T04:05:46;69.05;60.44;80.93;;
61321;Laerm;17737;52.586;13.284;2023-12-07T04:08:16;65.60;57.70;76.19;;
61321;Laerm;17737;52.586;13.284;2023-12-07T04:10:44;61.12;57.38;72.64;;
61321;Laerm;17737;52.586;13.284;2023-12-07T04:13:13;62.68;57.87;75.49;;
61321;Laerm;17737;52.586;13.284;2023-12-07T04:15:41;65.70;58.18;76.68;;
61321;Laerm;17737;52.586;13.284;2023-12-07T04:18:09;63.13;58.27;72.76;;
61321;Laerm;17737;52.586;13.284;2023-12-07T04:20:37;64.14;59.86;74.25;;
61321;Laerm;17737;52.586;13.284;2023-12-07T04:23:06;64.71;59.86;74.83;;
61321;Laerm;17737;52.586;13.284;2023-12-07T04:25:35;66.58;60.76;76.02;;
61321;Laerm;17737;52.586;13.284;2023-12-07T04:28:04;73.33;62.16;81.54;;
61321;Laerm;17737;52.586;13.284;2023-12-07T04:30:32;72.94;61.64;84.22;;
61321;Laerm;17737;52.586;13.284;2023-12-07T04:33:00;69.59;60.74;79.19;;
61321;Laerm;17737;52.586;13.284;2023-12-07T04:35:29;90.19;64.75;111.74;;
61321;Laerm;17737;52.586;13.284;2023-12-07T04:37:57;98.47;52.32;112.10;;
61321;Laerm;17737;52.586;13.284;2023-12-07T04:40:26;87.30;52.36;109.13;;
61321;Laerm;17737;52.586;13.284;2023-12-07T04:42:55;62.00;57.30;75.47;;
61321;Laerm;17737;52.586;13.284;2023-12-07T04:45:23;61.06;57.25;68.01;;
61321;Laerm;17737;52.586;13.284;2023-12-07T04:47:52;62.84;57.42;71.52;;
61321;Laerm;17737;52.586;13.284;2023-12-07T04:50:20;63.09;57.62;76.26;;
61321;Laerm;17737;52.586;13.284;2023-12-07T04:52:49;64.65;59.79;72.88;;
61321;Laerm;17737;52.586;13.284;2023-12-07T04:55:17;65.38;59.90;76.81;;
61321;Laerm;17737;52.586;13.284;2023-12-07T04:57:46;70.06;60.72;81.02;;
61321;Laerm;17737;52.586;13.284;2023-12-07T05:00:19;64.28;59.70;74.03;;
61321;Laerm;17737;52.586;13.284;2023-12-07T05:02:47;64.52;59.91;73.59;;
61321;Laerm;17737;52.586;13.284;2023-12-07T05:05:16;81.71;61.06;90.80;;
61321;Laerm;17737;52.586;13.284;2023-12-07T05:07:44;68.94;60.99;78.83;;
61321;Laerm;17737;52.586;13.284;2023-12-07T05:10:14;79.94;60.63;89.59;;
61321;Laerm;17737;52.586;13.284;2023-12-07T05:12:43;61.51;57.39;73.76;;
61321;Laerm;17737;52.586;13.284;2023-12-07T05:15:11;61.28;57.43;71.69;;
61321;Laerm;17737;52.586;13.284;2023-12-07T05:17:40;61.04;57.57;72.52;;
61321;Laerm;17737;52.586;13.284;2023-12-07T05:20:09;64.01;58.65;70.96;;
61321;Laerm;17737;52.586;13.284;2023-12-07T05:22:39;72.32;59.08;85.81;;
61321;Laerm;17737;52.586;13.284;2023-12-07T05:25:07;62.58;57.83;75.34;;
61321;Laerm;17737;52.586;13.284;2023-12-07T05:27:36;65.47;59.94;77.81;;
61321;Laerm;17737;52.586;13.284;2023-12-07T05:30:06;78.12;60.05;89.31;;
61321;Laerm;17737;52.586;13.284;2023-12-07T05:32:34;73.55;64.10;81.59;;
61321;Laerm;17737;52.586;13.284;2023-12-07T05:35:05;79.30;65.70;89.24;;
61321;Laerm;17737;52.586;13.284;2023-12-07T05:37:34;76.71;61.27;88.76;;
61321;Laerm;17737;52.586;13.284;2023-12-07T05:40:03;76.85;66.26;84.56;;
61321;Laerm;17737;52.586;13.284;2023-12-07T05:42:33;80.24;68.63;86.83;;
61321;Laerm;17737;52.586;13.284;2023-12-07T05:45:01;75.62;63.90;83.04;;
61321;Laerm;17737;52.586;13.284;2023-12-07T05:47:29;74.61;64.27;81.47;;
61321;Laerm;17737;52.586;13.284;2023-12-07T05:49:57;77.94;65.15;86.38;;
61321;Laerm;17737;52.586;13.284;2023-12-07T05:52:28;79.91;68.55;85.70;;
61321;Laerm;17737;52.586;13.284;2023-12-07T05:54:56;71.63;63.68;80.26;;
61321;Laerm;17737;52.586;13.284;2023-12-07T05:57:24;70.42;60.03;81.15;;
61321;Laerm;17737;52.586;13.284;2023-12-07T05:59:52;61.75;57.32;71.45;;
61321;Laerm;17737;52.586;13.284;2023-12-07T06:02:20;66.00;57.31;75.99;;
61321;Laerm;17737;52.586;13.284;2023-12-07T06:04:49;63.28;58.23;76.29;;
61321;Laerm;17737;52.586;13.284;2023-12-07T06:07:17;61.30;57.49;71.83;;
61321;Laerm;17737;52.586;13.284;2023-12-07T06:09:47;61.13;57.57;72.31;;
61321;Laerm;17737;52.586;13.284;2023-12-07T06:12:15;63.65;58.28;73.29;;
61321;Laerm;17737;52.586;13.284;2023-12-07T06:14:43;64.36;59.15;73.59;;
61321;Laerm;17737;52.586;13.284;2023-12-07T06:17:12;63.90;58.76;74.28;;
61321;Laerm;17737;52.586;13.284;2023-12-07T06:19:44;65.87;59.88;76.52;;
61321;Laerm;17737;52.586;13.284;2023-12-07T06:22:12;65.95;58.02;76.80;;
61321;Laerm;17737;52.586;13.284;2023-12-07T06:24:41;65.06;58.50;77.92;;
61321;Laerm;17737;52.586;13.284;2023-12-07T06:27:11;63.72;57.77;73.74;;
61321;Laerm;17737;52.586;13.284;2023-12-07T06:29:39;64.91;60.09;76.34;;
61321;Laerm;17737;52.586;13.284;2023-12-07T06:32:08;67.31;59.85;79.65;;
61321;Laerm;17737;52.586;13.284;2023-12-07T06:34:40;64.84;59.62;74.52;;
61321;Laerm;17737;52.586;13.284;2023-12-07T06:37:09;62.11;57.64;73.21;;
61321;Laerm;17737;52.586;13.284;2023-12-07T06:39:39;65.64;57.51;78.67;;
61321;Laerm;17737;52.586;13.284;2023-12-07T06:45:23;62.79;57.85;73.47;;
61321;Laerm;17737;52.586;13.284;2023-12-07T06:47:51;63.98;58.65;76.34;;
61321;Laerm;17737;52.586;13.284;2023-12-07T06:50:20;65.04;60.52;75.98;;
61321;Laerm;17737;52.586;13.284;2023-12-07T06:52:48;64.43;57.86;73.94;;
61321;Laerm;17737;52.586;13.284;2023-12-07T06:55:16;63.88;58.28;73.20;;
61321;Laerm;17737;52.586;13.284;2023-12-07T06:57:44;71.45;60.24;81.08;;
61321;Laerm;17737;52.586;13.284;2023-12-07T07:00:13;64.76;58.43;73.52;;
61321;Laerm;17737;52.586;13.284;2023-12-07T07:02:43;72.99;59.86;83.93;;
61321;Laerm;17737;52.586;13.284;2023-12-07T07:05:11;76.35;62.75;84.86;;
61321;Laerm;17737;52.586;13.284;2023-12-07T07:07:39;63.96;58.31;74.97;;
61321;Laerm;17737;52.586;13.284;2023-12-07T07:10:09;65.94;58.87;77.27;;
61321;Laerm;17737;52.586;13.284;2023-12-07T07:12:39;64.60;59.99;74.41;;
61321;Laerm;17737;52.586;13.284;2023-12-07T07:15:09;66.84;58.22;81.34;;
61321;Laerm;17737;52.586;13.284;2023-12-07T07:17:37;76.47;61.47;85.15;;
61321;Laerm;17737;52.586;13.284;2023-12-07T07:20:08;74.86;62.66;83.31;;
61321;Laerm;17737;52.586;13.284;2023-12-07T07:22:37;71.07;61.29;80.66;;
61321;Laerm;17737;52.586;13.284;2023-12-07T07:25:05;92.84;60.34;111.44;;
61321;Laerm;17737;52.586;13.284;2023-12-07T07:27:34;81.41;65.50;97.82;;
61321;Laerm;17737;52.586;13.284;2023-12-07T07:30:03;76.38;58.09;89.30;;
61321;Laerm;17737;52.586;13.284;2023-12-07T07:32:32;71.54;57.90;83.20;;
61321;Laerm;17737;52.586;13.284;2023-12-07T07:35:00;75.71;62.98;87.54;;
61321;Laerm;17737;52.586;13.284;2023-12-07T07:37:30;72.82;63.50;81.38;;
61321;Laerm;17737;52.586;13.284;2023-12-07T07:39:58;89.69;67.44;104.44;;
61321;Laerm;17737;52.586;13.284;2023-12-07T07:42:27;67.95;56.66;83.64;;
61321;Laerm;17737;52.586;13.284;2023-12-07T07:44:56;59.61;56.46;71.96;;
61321;Laerm;17737;52.586;13.284;2023-12-07T07:47:24;58.82;55.90;70.02;;
61321;Laerm;17737;52.586;13.284;2023-12-07T07:49:52;62.07;56.36;76.06;;
61321;Laerm;17737;52.586;13.284;2023-12-07T07:52:21;66.99;59.35;77.14;;
61321;Laerm;17737;52.586;13.284;2023-12-07T07:54:50;62.93;57.95;72.46;;
61321;Laerm;17737;52.586;13.284;2023-12-07T07:57:19;63.11;57.53;72.61;;
61321;Laerm;17737;52.586;13.284;2023-12-07T07:59:47;61.52;57.41;71.30;;
61321;Laerm;17737;52.586;13.284;2023-12-07T08:02:15;62.91;57.42;72.67;;
61321;Laerm;17737;52.586;13.284;2023-12-07T08:04:44;63.99;58.17;75.77;;
61321;Laerm;17737;52.586;13.284;2023-12-07T08:07:12;64.75;59.80;75.37;;
61321;Laerm;17737;52.586;13.284;2023-12-07T08:09:40;62.13;57.58;73.32;;
61321;Laerm;17737;52.586;13.284;2023-12-07T08:12:11;62.89;58.09;73.57;;
61321;Laerm;17737;52.586;13.284;2023-12-07T08:14:39;65.48;58.57;75.34;;
61321;Laerm;17737;52.586;13.284;2023-12-07T08:17:11;63.43;58.48;73.37;;
61321;Laerm;17737;52.586;13.284;2023-12-07T08:19:41;64.55;57.92;77.04;;
61321;Laerm;17737;52.586;13.284;2023-12-07T08:22:10;71.02;61.41;80.27;;
61321;Laerm;17737;52.586;13.284;2023-12-07T08:24:39;74.74;64.08;84.12;;
61321;Laerm;17737;52.586;13.284;2023-12-07T08:27:07;72.70;60.79;83.20;;
61321;Laerm;17737;52.586;13.284;2023-12-07T08:29:37;65.68;59.10;78.11;;
61321;Laerm;17737;52.586;13.284;2023-12-07T08:32:06;62.26;56.39;71.91;;
61321;Laerm;17737;52.586;13.284;2023-12-07T08:34:34;65.16;58.20;76.25;;
61321;Laerm;17737;52.586;13.284;2023-12-07T08:37:04;61.29;56.44;73.45;;
61321;Laerm;17737;52.586;13.284;2023-12-07T08:39:33;63.68;57.16;75.28;;
61321;Laerm;17737;52.586;13.284;2023-12-07T08:42:01;62.01;55.85;72.43;;
61321;Laerm;17737;52.586;13.284;2023-12-07T08:44:29;62.16;56.42;71.69;;
61321;Laerm;17737;52.586;13.284;2023-12-07T08:47:00;58.99;55.80;74.20;;
61321;Laerm;17737;52.586;13.284;2023-12-07T08:49:29;59.22;55.54;70.36;;
61321;Laerm;17737;52.586;13.284;2023-12-07T08:51:58;59.19;54.95;70.85;;
61321;Laerm;17737;52.586;13.284;2023-12-07T08:54:47;58.92;54.85;75.27;;
61321;Laerm;17737;52.586;13.284;2023-12-07T08:57:17;64.09;57.63;76.23;;
61321;Laerm;17737;52.586;13.284;2023-12-07T08:59:45;59.21;55.78;71.90;;
61321;Laerm;17737;52.586;13.284;2023-12-07T09:02:15;62.18;56.98;74.82;;
61321;Laerm;17737;52.586;13.284;2023-12-07T09:05:03;61.71;56.52;68.95;;
61321;Laerm;17737;52.586;13.284;2023-12-07T09:07:32;65.15;57.68;76.90;;
61321;Laerm;17737;52.586;13.284;2023-12-07T09:10:00;63.19;56.51;72.25;;
61321;Laerm;17737;52.586;13.284;2023-12-07T09:12:29;60.84;56.47;75.83;;
61321;Laerm;17737;52.586;13.284;2023-12-07T09:15:06;62.09;57.27;73.54;;
61321;Laerm;17737;52.586;13.284;2023-12-07T09:17:40;63.15;57.42;71.94;;
61321;Laerm;17737;52.586;13.284;2023-12-07T09:20:11;61.28;56.50;73.96;;
61321;Laerm;17737;52.586;13.284;2023-12-07T09:22:43;74.43;60.47;83.48;;
61321;Laerm;17737;52.586;13.284;2023-12-07T09:25:12;69.05;59.77;78.47;;
61321;Laerm;17737;52.586;13.284;2023-12-07T09:27:40;63.46;56.79;75.37;;
61321;Laerm;17737;52.586;13.284;2023-12-07T09:30:10;58.82;55.25;70.62;;
61321;Laerm;17737;52.586;13.284;2023-12-07T09:32:41;58.91;55.60;72.63;;
61321;Laerm;17737;52.586;13.284;2023-12-07T09:35:13;61.29;57.16;73.21;;
61321;Laerm;17737;52.586;13.284;2023-12-07T09:37:48;61.43;56.57;71.52;;
61321;Laerm;17737;52.586;13.284;2023-12-07T09:40:18;62.68;56.66;71.48;;
61321;Laerm;17737;52.586;13.284;2023-12-07T09:42:49;58.26;55.43;68.94;;
61321;Laerm;17737;52.586;13.284;2023-12-07T09:45:19;57.75;55.15;73.22;;
61321;Laerm;17737;52.586;13.284;2023-12-07T09:47:52;57.19;54.40;69.36;;
61321;Laerm;17737;52.586;13.284;2023-12-07T09:50:23;58.80;55.53;70.55;;
61321;Laerm;17737;52.586;13.284;2023-12-07T09:52:54;58.48;55.42;70.19;;
61321;Laerm;17737;52.586;13.284;2023-12-07T09:55:35;59.39;56.14;71.60;;
61321;Laerm;17737;52.586;13.284;2023-12-07T09:58:05;60.57;56.87;72.55;;
61321;Laerm;17737;52.586;13.284;2023-12-07T10:00:37;59.51;56.01;71.39;;
61321;Laerm;17737;52.586;13.284;2023-12-07T10:03:08;58.73;55.50;74.48;;
61321;Laerm;17737;52.586;13.284;2023-12-07T10:05:54;59.76;56.26;71.93;;
61321;Laerm;17737;52.586;13.284;2023-12-07T10:08:29;58.32;55.32;70.47;;
61321;Laerm;17737;52.586;13.284;2023-12-07T10:11:08;64.43;56.36;75.86;;
61321;Laerm;17737;52.586;13.284;2023-12-07T10:13:37;61.41;56.74;73.90;;
61321;Laerm;17737;52.586;13.284;2023-12-07T10:16:11;59.72;55.85;71.12;;
61321;Laerm;17737;52.586;13.284;2023-12-07T10:18:46;59.92;56.38;70.59;;
61321;Laerm;17737;52.586;13.284;2023-12-07T10:21:34;59.14;56.05;72.48;;
61321;Laerm;17737;52.586;13.284;2023-12-07T10:24:08;58.72;55.86;62.98;;
61321;Laerm;17737;52.586;13.284;2023-12-07T10:26:38;58.71;55.82;70.83;;
61321;Laerm;17737;52.586;13.284;2023-12-07T10:29:07;59.78;55.83;71.42;;
61321;Laerm;17737;52.586;13.284;2023-12-07T10:32:01;58.93;55.73;70.08;;
61321;Laerm;17737;52.586;13.284;2023-12-07T10:34:32;60.60;56.65;72.28;;
61321;Laerm;17737;52.586;13.284;2023-12-07T10:37:04;64.87;57.83;75.02;;
61321;Laerm;17737;52.586;13.284;2023-12-07T10:39:33;60.58;56.63;71.92;;
61321;Laerm;17737;52.586;13.284;2023-12-07T10:42:09;59.82;56.53;72.12;;
61321;Laerm;17737;52.586;13.284;2023-12-07T10:44:41;59.12;55.26;70.74;;
61321;Laerm;17737;52.586;13.284;2023-12-07T10:47:10;61.98;57.54;72.19;;
61321;Laerm;17737;52.586;13.284;2023-12-07T10:49:43;61.75;57.08;75.83;;
61321;Laerm;17737;52.586;13.284;2023-12-07T10:52:20;59.94;56.53;70.82;;
61321;Laerm;17737;52.586;13.284;2023-12-07T10:55:00;58.68;55.69;70.21;;
61321;Laerm;17737;52.586;13.284;2023-12-07T10:57:34;61.90;56.96;72.08;;
61321;Laerm;17737;52.586;13.284;2023-12-07T11:00:07;64.34;56.37;74.45;;
61321;Laerm;17737;52.586;13.284;2023-12-07T11:02:41;63.84;57.06;74.33;;
61321;Laerm;17737;52.586;13.284;2023-12-07T11:05:14;65.42;60.01;74.78;;
61321;Laerm;17737;52.586;13.284;2023-12-07T11:07:59;68.71;59.21;78.41;;
61321;Laerm;17737;52.586;13.284;2023-12-07T11:10:45;62.38;56.01;72.67;;
61321;Laerm;17737;52.586;13.284;2023-12-07T11:13:20;60.35;56.23;68.64;;
61321;Laerm;17737;52.586;13.284;2023-12-07T11:15:53;67.28;56.61;80.77;;
61321;Laerm;17737;52.586;13.284;2023-12-07T11:18:25;68.18;59.65;79.99;;
61321;Laerm;17737;52.586;13.284;2023-12-07T11:20:58;70.09;59.83;80.70;;
61321;Laerm;17737;52.586;13.284;2023-12-07T11:23:28;69.41;58.43;81.27;;
61321;Laerm;17737;52.586;13.284;2023-12-07T11:25:57;82.95;59.78;96.86;;
61321;Laerm;17737;52.586;13.284;2023-12-07T11:28:38;80.32;60.60;92.68;;
61321;Laerm;17737;52.586;13.284;2023-12-07T11:31:12;71.62;62.54;81.59;;
61321;Laerm;17737;52.586;13.284;2023-12-07T11:33:41;75.86;62.17;85.52;;
61321;Laerm;17737;52.586;13.284;2023-12-07T11:36:12;78.88;63.96;91.12;;
61321;Laerm;17737;52.586;13.284;2023-12-07T11:39:16;76.39;63.41;87.00;;
61321;Laerm;17737;52.586;13.284;2023-12-07T11:41:55;70.72;61.92;79.97;;
61321;Laerm;17737;52.586;13.284;2023-12-07T11:44:38;73.58;59.42;85.96;;
61321;Laerm;17737;52.586;13.284;2023-12-07T11:47:17;64.21;56.98;76.40;;
61321;Laerm;17737;52.586;13.284;2023-12-07T11:49:48;65.48;58.29;75.23;;
61321;Laerm;17737;52.586;13.284;2023-12-07T11:52:19;71.64;62.02;79.23;;
61321;Laerm;17737;52.586;13.284;2023-12-07T11:54:51;66.88;58.07;76.68;;
61321;Laerm;17737;52.586;13.284;2023-12-07T11:57:20;59.71;56.70;71.56;;
61321;Laerm;17737;52.586;13.284;2023-12-07T11:59:52;59.81;55.52;75.87;;
61321;Laerm;17737;52.586;13.284;2023-12-07T12:02:33;59.04;55.39;73.89;;
61321;Laerm;17737;52.586;13.284;2023-12-07T12:05:06;57.69;55.08;70.01;;
61321;Laerm;17737;52.586;13.284;2023-12-07T12:07:37;58.10;55.47;74.65;;
61321;Laerm;17737;52.586;13.284;2023-12-07T12:10:11;59.36;55.20;72.15;;
61321;Laerm;17737;52.586;13.284;2023-12-07T12:12:44;61.87;57.60;71.68;;
61321;Laerm;17737;52.586;13.284;2023-12-07T12:15:13;63.84;57.09;75.37;;
61321;Laerm;17737;52.586;13.284;2023-12-07T12:17:42;60.93;56.88;71.55;;
61321;Laerm;17737;52.586;13.284;2023-12-07T12:20:11;58.66;55.48;73.83;;
61321;Laerm;17737;52.586;13.284;2023-12-07T12:22:45;58.13;55.37;70.41;;
61321;Laerm;17737;52.586;13.284;2023-12-07T12:25:15;58.21;55.24;71.69;;
61321;Laerm;17737;52.586;13.284;2023-12-07T12:27:44;59.00;55.65;75.16;;
61321;Laerm;17737;52.586;13.284;2023-12-07T12:30:16;64.06;56.72;76.57;;
61321;Laerm;17737;52.586;13.284;2023-12-07T12:32:46;61.34;56.90;71.08;;
61321;Laerm;17737;52.586;13.284;2023-12-07T12:35:20;64.91;57.25;75.56;;
61321;Laerm;17737;52.586;13.284;2023-12-07T12:37:51;78.03;59.46;94.49;;
61321;Laerm;17737;52.586;13.284;2023-12-07T12:40:21;81.40;63.02;92.67;;
61321;Laerm;17737;52.586;13.284;2023-12-07T12:42:52;75.46;63.93;82.64;;
61321;Laerm;17737;52.586;13.284;2023-12-07T12:45:24;67.50;60.05;77.03;;
61321;Laerm;17737;52.586;13.284;2023-12-07T12:47:52;67.92;59.90;79.13;;
61321;Laerm;17737;52.586;13.284;2023-12-07T12:50:42;61.47;56.87;74.49;;
61321;Laerm;17737;52.586;13.284;2023-12-07T12:53:12;70.37;57.48;82.00;;
61321;Laerm;17737;52.586;13.284;2023-12-07T12:55:42;62.35;56.83;75.62;;
61321;Laerm;17737;52.586;13.284;2023-12-07T12:58:10;59.18;56.43;74.67;;
61321;Laerm;17737;52.586;13.284;2023-12-07T13:00:39;60.33;56.13;72.65;;
61321;Laerm;17737;52.586;13.284;2023-12-07T13:03:07;59.21;55.00;72.91;;
61321;Laerm;17737;52.586;13.284;2023-12-07T13:05:37;67.19;54.64;81.53;;
61321;Laerm;17737;52.586;13.284;2023-12-07T13:08:05;64.11;57.66;75.38;;
61321;Laerm;17737;52.586;13.284;2023-12-07T13:10:42;64.20;57.01;78.05;;
61321;Laerm;17737;52.586;13.284;2023-12-07T13:13:10;64.70;56.87;76.10;;
61321;Laerm;17737;52.586;13.284;2023-12-07T13:15:38;82.71;59.92;99.82;;
61321;Laerm;17737;52.586;13.284;2023-12-07T13:18:06;66.49;57.31;78.75;;
61321;Laerm;17737;52.586;13.284;2023-12-07T13:20:35;62.27;57.50;72.95;;
61321;Laerm;17737;52.586;13.284;2023-12-07T13:23:06;61.04;56.45;74.31;;
61321;Laerm;17737;52.586;13.284;2023-12-07T13:25:34;63.15;57.47;72.54;;
61321;Laerm;17737;52.586;13.284;2023-12-07T13:28:04;64.04;56.49;75.89;;
61321;Laerm;17737;52.586;13.284;2023-12-07T13:30:33;69.01;57.76;81.51;;
61321;Laerm;17737;52.586;13.284;2023-12-07T13:33:02;64.47;56.28;82.53;;
61321;Laerm;17737;52.586;13.284;2023-12-07T13:35:50;66.72;56.60;78.05;;
61321;Laerm;17737;52.586;13.284;2023-12-07T13:38:22;80.71;65.13;94.26;;
61321;Laerm;17737;52.586;13.284;2023-12-07T13:40:51;69.93;62.09;78.84;;
61321;Laerm;17737;52.586;13.284;2023-12-07T13:43:20;73.85;59.02;85.73;;
61321;Laerm;17737;52.586;13.284;2023-12-07T13:45:51;68.71;57.99;79.14;;
61321;Laerm;17737;52.586;13.284;2023-12-07T13:48:19;68.01;56.54;80.44;;
61321;Laerm;17737;52.586;13.284;2023-12-07T13:50:47;66.50;56.48;78.00;;
61321;Laerm;17737;52.586;13.284;2023-12-07T13:53:17;69.74;60.39;78.63;;